Historyczne dane pomiarowe

Dodano dane terminowe – wersja testowa.

Dane z okresu 1951-2019

Wersja bazy: 1.34 [2019-03-16, lista zmian], aktualizacja planowana na 2019-04-15

Dane meteo z obszaru Polski uzyskane na podstawie danych udostępnionych przez Instytut Meteorologii i Gospodarki Wodnej – Państwowy Instytut Badawczy.

 

Wybierz Datę:    

       

TemperaturaWilgotnośćWiatrCiśnienieOpadyŚniegCzas trwania zjawisk
 Stacja t tx tn tng RH VA  wxwx mslp ppp RRR   cm mm wxwxwxwxwxwxwx
1994-08-14 15.1 17.9 10.4 8.4 67.3- 4.0 5.7---- 0.0------------
1994-08-13 16.7 22.9 14.3 14.7 84.8- 7.7 4.3---- 3.3------------
1994-08-12 16.3 20.4 15.1 12.6 96.5- 8.0 3.0---- 6.7------------
1994-08-11 19.8 23.9 16.8 9.4 88.0- 7.0 2.0---- 8.8------------
1994-08-10 19.1 26.9 12.3 8.4 61.0- 7.0 4.0---- 3.8------------
1994-08-09 18.7 24.4 17.3 12.6 92.5- 6.3 3.3---- 4.6------------
1994-08-08 22.2 26.9 17.8 17.9 79.5- 5.3 3.0---- 13.8------------
1994-08-07 25.0 31.5 17.3 13.6 65.8- 4.3 3.3---- 2.2------------
1994-08-06 25.8 34.0 15.8 11.5 59.3- 3.7 3.7---- 0.0------------
1994-08-05 23.3 32.0 12.8 13.1 57.0- 0.7 2.0---- 0.0------------
1994-08-04 23.8 29.4 15.8 10.4 65.3- 2.0 2.3---- 0.0------------
1994-08-03 25.1 32.5 19.3 16.8 68.8- 1.7 1.7---- 0.0------------
1994-08-02 26.6 34.0 19.8 17.9 64.0- 3.7 2.3---- 0.0------------
1994-08-01 28.0 35.0 19.3 14.7 66.5- 5.0 1.0---- 0.0------------
1994-07-31 28.5 36.0 19.8 14.7 53.8- 0.0 2.3---- 0.0------------
1994-07-30 28.7 36.5 18.3 12.6 50.5- 0.7 2.0---- 0.0------------
1994-07-29 28.5 34.5 19.8 13.6 61.5- 0.0 2.0---- 0.0------------
1994-07-28 25.9 34.5 14.8 12.6 55.0- 0.3 2.3---- 0.0------------
1994-07-27 26.8 33.5 16.8 13.1 57.3- 1.7 3.3---- 0.0------------
1994-07-26 25.8 34.0 16.8 13.6 62.5- 2.0 2.0---- 0.0------------
1994-07-25 25.5 31.5 16.8 11.5 59.3- 2.0 3.3---- 0.0------------
1994-07-24 24.3 30.5 14.8 9.9 67.5- 0.0 2.7---- 0.0------------
1994-07-23 21.9 28.4 14.3 8.5 64.3- 0.0 1.7---- 0.0------------
1994-07-22 21.5 28.4 12.3 7.6 64.3- 1.0 4.0---- 0.0------------
1994-07-21 20.4 26.9 12.3 7.4 62.0- 1.0 3.0---- 0.0------------
1994-07-20 19.6 24.4 10.9 6.9 64.5- 1.0 2.7---- 0.0------------
1994-07-19 20.2 25.5 13.8 11.5 75.0- 1.3 2.7---- 0.0------------
1994-07-18 21.4 28.4 14.8 13.6 74.8- 1.7 2.3---- 0.0------------
1994-07-17 20.1 27.9 15.3 14.7 72.0- 4.7 2.7---- 22.6------------
1994-07-16 22.5 29.9 14.8 11.0 73.5- 4.7 2.0---- 1.6------------
1994-07-15 21.9 27.4 15.3 11.3 74.5- 2.0 3.3---- 0.0------------
1994-07-14 23.0 29.9 15.8 11.0 69.5- 2.0 3.0---- 0.0------------
1994-07-13 22.8 27.9 14.8 10.4 63.5- 1.3 4.0---- 0.0------------
1994-07-12 20.7 26.4 12.8 9.4 72.8- 1.7 3.7---- 0.0------------
1994-07-11 20.5 25.9 12.8 12.6 74.0- 2.3 4.0---- 0.0------------
1994-07-10 15.0 23.4 9.9 9.4 84.5- 4.3 2.0---- 1.8------------
1994-07-09 14.5 17.9 12.8 12.6 95.3- 4.3 2.7---- 14.2------------
1994-07-08 15.6 17.9 12.3 12.0 83.8- 2.0 3.7---- 1.0------------
1994-07-07 19.7 26.4 12.8 8.4 72.8- 4.0 3.0---- 4.2------------
1994-07-06 19.8 25.4 12.8 9.4 69.5- 1.0 1.3---- 0.0------------
1994-07-05 20.1 27.9 15.3 10.4 71.5- 3.7 2.7---- 0.0------------
1994-07-04 24.7 29.9 15.9 10.4 63.5- 1.0 1.7---- 0.0------------
1994-07-03 21.7 26.9 10.9 9.4 67.0- 1.0 2.7---- 0.0------------
1994-07-02 21.0 25.4 11.3 5.9 63.3- 2.0 2.0---- 0.0------------
1994-07-01 19.7 24.4 11.8 11.0 70.0- 1.0 2.7---- 0.0------------
1994-06-30 21.7 28.9 18.8 11.0 91.0- 2.0 3.0---- 0.0------------
1994-06-29 26.2 29.9 18.3 13.6 73.5- 1.0 2.0---- 0.0------------
1994-06-28 25.0 31.0 19.3 17.9 75.5- 2.0 3.0---- 0.0------------
1994-06-27 24.0 33.0 16.9 16.8 69.0- 2.0 2.0---- 0.0------------
1994-06-26 21.2 30.5 9.9 8.4 68.8- 1.0 5.3---- 0.0------------
1994-06-25 17.3 24.4 6.0 1.4 68.5- 2.0 4.0---- 0.0------------
1994-06-24 14.4 22.4 6.5 4.4 75.3- 1.7 4.0---- 0.0------------
1994-06-23 17.4 22.4 14.3 13.1 66.8- 3.0 6.0---- 0.0------------
1994-06-22 17.2 25.9 9.4 5.4 77.0- 7.0 3.0---- 1.7------------
1994-06-21 14.2 21.4 7.9 3.4 69.5- 2.0 3.0---- 0.0------------
1994-06-20 16.7 23.9 8.4 7.9 75.5- 3.3 5.3---- 0.0------------
1994-06-19 17.6 24.9 10.4 11.5 75.3- 4.7 2.3---- 0.0------------
1994-06-18 12.5 18.9 2.1 1.9 80.0- 3.7 3.3---- 7.6------------
1994-06-17 10.9 14.9 6.5 6.4 77.0- 3.3 5.3---- 0.0------------
1994-06-16 11.2 15.4 6.5 2.9 87.0- 7.7 3.3---- 5.6------------
313.2 ms

 

Źródłem pochodzenia danych jest Instytut Meteorologii i Gospodarki Wodnej – Państwowy Instytut Badawczy. Dane Instytutu Meteorologii i Gospodarki Wodnej – Państwowego Instytutu Badawczego zostały przetworzone.

Dane źródłowe można odnaleźć na stronie https://dane.imgw.pl